« 定点 富山空港 2017/12/27 wed | トップページ | 美ら島エアーフェスタ2017【二日目】 那覇空港 2017/12/10 sun »

2017/12/28

美ら島エアーフェスタ2017【初日6終】 那覇空港 2017/12/9 sat

その5からつづき

陽もとっぷり落ちて、もうここからは、夜間撮影訓練です。

ROAH 090900Z 05008KT 9999 FEW040 SCT070 BKN150 18/09 Q1017 RMK 1SC040 3AC070 7AC150 A3006

20171209_roah_600ja

ANA475 RJTT-ROAH JA756A B777-381

20171209_roah_602ja752j

JAL919 RJTT-ROAH JA752J B777-381

20171209_roah_603f728962

72-8962 F-15J 204SQ

雲の隙間から最後の茜色

20171209_roah_604ja752j

ROAH 090900Z 05008KT 9999 FEW040 SCT070 BKN150 18/09 Q1017 RMK 1SC040 3AC070 7AC150 A3006

20171209_roah_605ja05rk

JTA60 ROAH-RJFF JA05RK B737-8Q3

20171209_roah_606f15

F-15の夜間フライトも小生のコンデジでは、こんなんしか撮れんだ。

20171209_roah_607pm

今年もプロジェクトマッピング。昨年よりケチったかなぁ。

20171209_roah_608ja01rk

JTA573 ROAH-ROMY JA01RK B737-8Q3

20171209_roah_609f15

F-15がトレイルでファイナル

ROAH 091000Z 05006KT 010V110 9999 FEW040 BKN150 18/09 Q1018 RMK 1SC040 7AC150 A3006

20171209_roah_610f15

ひゃー、ダメダメ

20171209_roah_611f15

とんだ機体は、合同編隊と同じですが、さて?

20171209_roah_612t165668

16-5668 T-4 204SQ

20171209_roah_613tower

時刻は19時も回り、重い身体を引きずって正門までの坂を上ります。一日長かった。はよ、宴会せなー。と、言うことで撤収です。長々とありがとうございました。

さて、2日目はどうしよかなぁ?

|

« 定点 富山空港 2017/12/27 wed | トップページ | 美ら島エアーフェスタ2017【二日目】 那覇空港 2017/12/10 sun »

那覇空港」カテゴリの記事

コメント

コメントを書く



(ウェブ上には掲載しません)


コメントは記事投稿者が公開するまで表示されません。



トラックバック


この記事へのトラックバック一覧です: 美ら島エアーフェスタ2017【初日6終】 那覇空港 2017/12/9 sat:

« 定点 富山空港 2017/12/27 wed | トップページ | 美ら島エアーフェスタ2017【二日目】 那覇空港 2017/12/10 sun »